sensor_id;sensor_type;location;lat;lon;timestamp;P1;durP1;ratioP1;P2;durP2;ratioP2
43226;SDS011;28839;52.404;9.808;2022-11-18T00:01:26;23.35;;;14.35;;
43226;SDS011;28839;52.404;9.808;2022-11-18T00:08:21;26.25;;;15.82;;
43226;SDS011;28839;52.404;9.808;2022-11-18T00:15:16;28.62;;;16.25;;
43226;SDS011;28839;52.404;9.808;2022-11-18T00:22:11;23.87;;;11.73;;
43226;SDS011;28839;52.404;9.808;2022-11-18T00:29:07;25.48;;;13.77;;
43226;SDS011;28839;52.404;9.808;2022-11-18T00:36:01;25.67;;;15.32;;
43226;SDS011;28839;52.404;9.808;2022-11-18T00:42:56;18.92;;;12.48;;
43226;SDS011;28839;52.404;9.808;2022-11-18T00:49:51;23.17;;;13.27;;
43226;SDS011;28839;52.404;9.808;2022-11-18T00:56:45;16.12;;;11.07;;
43226;SDS011;28839;52.404;9.808;2022-11-18T01:03:39;17.05;;;10.77;;
43226;SDS011;28839;52.404;9.808;2022-11-18T01:10:34;15.20;;;9.30;;
43226;SDS011;28839;52.404;9.808;2022-11-18T01:17:29;15.95;;;10.43;;
43226;SDS011;28839;52.404;9.808;2022-11-18T01:24:23;18.67;;;11.10;;
43226;SDS011;28839;52.404;9.808;2022-11-18T01:31:18;18.45;;;9.90;;
43226;SDS011;28839;52.404;9.808;2022-11-18T01:38:12;21.33;;;13.20;;
43226;SDS011;28839;52.404;9.808;2022-11-18T01:45:14;22.20;;;13.07;;
43226;SDS011;28839;52.404;9.808;2022-11-18T01:52:20;21.45;;;13.45;;
43226;SDS011;28839;52.404;9.808;2022-11-18T01:59:16;24.60;;;13.60;;
43226;SDS011;28839;52.404;9.808;2022-11-18T02:06:12;23.20;;;12.75;;
43226;SDS011;28839;52.404;9.808;2022-11-18T02:13:08;18.83;;;10.97;;
43226;SDS011;28839;52.404;9.808;2022-11-18T02:20:23;22.75;;;12.93;;
43226;SDS011;28839;52.404;9.808;2022-11-18T02:34:49;17.52;;;11.35;;
43226;SDS011;28839;52.404;9.808;2022-11-18T02:41:51;21.48;;;12.50;;
43226;SDS011;28839;52.404;9.808;2022-11-18T02:48:48;19.30;;;11.15;;
43226;SDS011;28839;52.404;9.808;2022-11-18T02:55:45;18.92;;;12.75;;
43226;SDS011;28839;52.404;9.808;2022-11-18T03:02:41;19.62;;;12.37;;
43226;SDS011;28839;52.404;9.808;2022-11-18T03:09:36;23.67;;;12.48;;
43226;SDS011;28839;52.404;9.808;2022-11-18T03:16:35;22.90;;;13.95;;
43226;SDS011;28839;52.404;9.808;2022-11-18T03:23:34;23.15;;;12.63;;
43226;SDS011;28839;52.404;9.808;2022-11-18T03:30:31;25.40;;;14.05;;
43226;SDS011;28839;52.404;9.808;2022-11-18T03:37:29;26.33;;;14.55;;
43226;SDS011;28839;52.404;9.808;2022-11-18T03:44:27;27.10;;;15.60;;
43226;SDS011;28839;52.404;9.808;2022-11-18T03:51:25;25.23;;;13.35;;
43226;SDS011;28839;52.404;9.808;2022-11-18T03:58:25;24.15;;;14.52;;
43226;SDS011;28839;52.404;9.808;2022-11-18T04:05:23;29.48;;;15.68;;
43226;SDS011;28839;52.404;9.808;2022-11-18T04:12:18;30.50;;;15.63;;
43226;SDS011;28839;52.404;9.808;2022-11-18T04:19:16;25.90;;;14.73;;
43226;SDS011;28839;52.404;9.808;2022-11-18T04:26:11;34.38;;;17.80;;
43226;SDS011;28839;52.404;9.808;2022-11-18T04:33:05;34.22;;;17.02;;
43226;SDS011;28839;52.404;9.808;2022-11-18T04:40:00;35.92;;;18.60;;
43226;SDS011;28839;52.404;9.808;2022-11-18T04:46:54;36.15;;;18.62;;
43226;SDS011;28839;52.404;9.808;2022-11-18T04:53:49;34.28;;;16.70;;
43226;SDS011;28839;52.404;9.808;2022-11-18T05:00:44;46.80;;;21.58;;
43226;SDS011;28839;52.404;9.808;2022-11-18T05:07:38;42.35;;;19.35;;
43226;SDS011;28839;52.404;9.808;2022-11-18T05:14:32;42.13;;;18.77;;
43226;SDS011;28839;52.404;9.808;2022-11-18T05:21:27;41.47;;;20.42;;
43226;SDS011;28839;52.404;9.808;2022-11-18T05:28:21;41.47;;;20.30;;
43226;SDS011;28839;52.404;9.808;2022-11-18T05:35:15;46.63;;;21.20;;
43226;SDS011;28839;52.404;9.808;2022-11-18T05:42:10;49.70;;;22.27;;
43226;SDS011;28839;52.404;9.808;2022-11-18T05:49:22;54.97;;;23.40;;
43226;SDS011;28839;52.404;9.808;2022-11-18T05:56:18;55.85;;;23.85;;
43226;SDS011;28839;52.404;9.808;2022-11-18T06:03:16;53.78;;;21.83;;
43226;SDS011;28839;52.404;9.808;2022-11-18T06:10:15;60.78;;;26.60;;
43226;SDS011;28839;52.404;9.808;2022-11-18T06:17:13;43.70;;;20.77;;
43226;SDS011;28839;52.404;9.808;2022-11-18T06:24:12;42.97;;;19.17;;
43226;SDS011;28839;52.404;9.808;2022-11-18T06:31:06;48.42;;;23.30;;
43226;SDS011;28839;52.404;9.808;2022-11-18T06:38:00;60.17;;;26.40;;
43226;SDS011;28839;52.404;9.808;2022-11-18T06:44:55;53.83;;;25.35;;
43226;SDS011;28839;52.404;9.808;2022-11-18T06:51:49;61.22;;;25.77;;
43226;SDS011;28839;52.404;9.808;2022-11-18T06:58:43;61.20;;;28.57;;
43226;SDS011;28839;52.404;9.808;2022-11-18T07:05:39;56.83;;;27.80;;
43226;SDS011;28839;52.404;9.808;2022-11-18T07:12:33;62.58;;;26.70;;
43226;SDS011;28839;52.404;9.808;2022-11-18T07:19:27;91.12;;;18.77;;
43226;SDS011;28839;52.404;9.808;2022-11-18T07:26:23;55.72;;;25.25;;
43226;SDS011;28839;52.404;9.808;2022-11-18T07:33:17;43.03;;;19.00;;
43226;SDS011;28839;52.404;9.808;2022-11-18T07:40:11;67.17;;;27.43;;
43226;SDS011;28839;52.404;9.808;2022-11-18T07:47:06;59.83;;;25.50;;
43226;SDS011;28839;52.404;9.808;2022-11-18T07:54:00;58.50;;;24.70;;
43226;SDS011;28839;52.404;9.808;2022-11-18T08:00:57;64.62;;;27.55;;
43226;SDS011;28839;52.404;9.808;2022-11-18T08:07:52;59.37;;;25.93;;
43226;SDS011;28839;52.404;9.808;2022-11-18T08:14:46;64.30;;;27.92;;
43226;SDS011;28839;52.404;9.808;2022-11-18T08:21:40;52.03;;;21.00;;
43226;SDS011;28839;52.404;9.808;2022-11-18T08:28:35;49.95;;;23.58;;
43226;SDS011;28839;52.404;9.808;2022-11-18T08:35:30;63.33;;;25.67;;
43226;SDS011;28839;52.404;9.808;2022-11-18T08:42:24;66.03;;;28.10;;
43226;SDS011;28839;52.404;9.808;2022-11-18T08:49:19;55.58;;;26.60;;
43226;SDS011;28839;52.404;9.808;2022-11-18T08:56:14;66.00;;;28.83;;
43226;SDS011;28839;52.404;9.808;2022-11-18T09:03:09;74.55;;;30.88;;
43226;SDS011;28839;52.404;9.808;2022-11-18T09:10:05;71.72;;;28.80;;
43226;SDS011;28839;52.404;9.808;2022-11-18T09:16:59;70.62;;;31.27;;
43226;SDS011;28839;52.404;9.808;2022-11-18T09:23:53;63.57;;;28.90;;
43226;SDS011;28839;52.404;9.808;2022-11-18T09:30:49;52.62;;;25.37;;
43226;SDS011;28839;52.404;9.808;2022-11-18T09:37:42;61.85;;;28.23;;
43226;SDS011;28839;52.404;9.808;2022-11-18T09:52:00;52.60;;;23.65;;
43226;SDS011;28839;52.404;9.808;2022-11-18T09:58:54;42.13;;;20.70;;
43226;SDS011;28839;52.404;9.808;2022-11-18T10:05:50;46.42;;;21.27;;
43226;SDS011;28839;52.404;9.808;2022-11-18T10:12:51;43.65;;;22.20;;
43226;SDS011;28839;52.404;9.808;2022-11-18T10:19:50;44.13;;;20.95;;
43226;SDS011;28839;52.404;9.808;2022-11-18T10:26:53;48.80;;;23.23;;
43226;SDS011;28839;52.404;9.808;2022-11-18T10:33:49;39.15;;;19.60;;
43226;SDS011;28839;52.404;9.808;2022-11-18T10:40:55;40.35;;;20.55;;
43226;SDS011;28839;52.404;9.808;2022-11-18T10:47:56;44.85;;;22.58;;
43226;SDS011;28839;52.404;9.808;2022-11-18T10:55:17;41.75;;;21.98;;
43226;SDS011;28839;52.404;9.808;2022-11-18T11:02:14;41.05;;;22.05;;
43226;SDS011;28839;52.404;9.808;2022-11-18T11:09:21;42.40;;;22.25;;
43226;SDS011;28839;52.404;9.808;2022-11-18T11:16:19;30.85;;;16.75;;
43226;SDS011;28839;52.404;9.808;2022-11-18T11:23:14;45.25;;;21.15;;
43226;SDS011;28839;52.404;9.808;2022-11-18T11:30:15;42.17;;;22.03;;
43226;SDS011;28839;52.404;9.808;2022-11-18T11:37:16;44.85;;;22.08;;
43226;SDS011;28839;52.404;9.808;2022-11-18T11:44:22;45.25;;;23.65;;
43226;SDS011;28839;52.404;9.808;2022-11-18T11:51:26;43.38;;;20.80;;
43226;SDS011;28839;52.404;9.808;2022-11-18T11:58:36;40.50;;;20.42;;
43226;SDS011;28839;52.404;9.808;2022-11-18T12:05:42;40.83;;;21.17;;
43226;SDS011;28839;52.404;9.808;2022-11-18T12:12:37;43.28;;;21.23;;
43226;SDS011;28839;52.404;9.808;2022-11-18T12:19:41;34.03;;;17.53;;
43226;SDS011;28839;52.404;9.808;2022-11-18T12:26:35;37.20;;;18.75;;
43226;SDS011;28839;52.404;9.808;2022-11-18T12:33:29;40.22;;;21.92;;
43226;SDS011;28839;52.404;9.808;2022-11-18T12:40:34;33.40;;;16.40;;
43226;SDS011;28839;52.404;9.808;2022-11-18T12:54:49;38.92;;;21.80;;
43226;SDS011;28839;52.404;9.808;2022-11-18T13:01:44;39.95;;;22.00;;
43226;SDS011;28839;52.404;9.808;2022-11-18T13:08:38;43.72;;;21.48;;
43226;SDS011;28839;52.404;9.808;2022-11-18T13:15:33;38.05;;;21.40;;
43226;SDS011;28839;52.404;9.808;2022-11-18T13:22:54;31.12;;;15.93;;
43226;SDS011;28839;52.404;9.808;2022-11-18T13:30:09;39.60;;;20.20;;
43226;SDS011;28839;52.404;9.808;2022-11-18T13:37:11;39.35;;;22.40;;
43226;SDS011;28839;52.404;9.808;2022-11-18T13:44:11;32.80;;;16.33;;
43226;SDS011;28839;52.404;9.808;2022-11-18T13:51:10;43.87;;;22.95;;
43226;SDS011;28839;52.404;9.808;2022-11-18T13:58:10;38.00;;;20.45;;
43226;SDS011;28839;52.404;9.808;2022-11-18T14:05:19;43.70;;;23.35;;
43226;SDS011;28839;52.404;9.808;2022-11-18T14:12:20;41.83;;;23.98;;
43226;SDS011;28839;52.404;9.808;2022-11-18T14:19:25;44.83;;;24.35;;
43226;SDS011;28839;52.404;9.808;2022-11-18T14:26:29;50.30;;;25.95;;
43226;SDS011;28839;52.404;9.808;2022-11-18T14:33:25;49.33;;;27.05;;
43226;SDS011;28839;52.404;9.808;2022-11-18T14:40:19;48.25;;;25.58;;
43226;SDS011;28839;52.404;9.808;2022-11-18T14:47:17;47.63;;;27.70;;
43226;SDS011;28839;52.404;9.808;2022-11-18T14:54:14;50.10;;;27.02;;
43226;SDS011;28839;52.404;9.808;2022-11-18T15:01:10;49.03;;;26.58;;
43226;SDS011;28839;52.404;9.808;2022-11-18T15:08:06;50.17;;;27.00;;
43226;SDS011;28839;52.404;9.808;2022-11-18T15:15:00;40.92;;;23.15;;
43226;SDS011;28839;52.404;9.808;2022-11-18T15:21:54;50.60;;;27.77;;
43226;SDS011;28839;52.404;9.808;2022-11-18T15:28:49;52.37;;;25.97;;
43226;SDS011;28839;52.404;9.808;2022-11-18T15:35:44;52.20;;;27.48;;
43226;SDS011;28839;52.404;9.808;2022-11-18T15:42:38;52.40;;;29.40;;
43226;SDS011;28839;52.404;9.808;2022-11-18T15:49:33;46.80;;;26.98;;
43226;SDS011;28839;52.404;9.808;2022-11-18T15:56:28;47.80;;;25.70;;
43226;SDS011;28839;52.404;9.808;2022-11-18T16:03:22;45.58;;;26.30;;
43226;SDS011;28839;52.404;9.808;2022-11-18T16:10:18;40.70;;;22.90;;
43226;SDS011;28839;52.404;9.808;2022-11-18T16:17:35;38.88;;;23.33;;
43226;SDS011;28839;52.404;9.808;2022-11-18T16:24:28;49.10;;;25.27;;
43226;SDS011;28839;52.404;9.808;2022-11-18T16:31:24;39.47;;;21.90;;
43226;SDS011;28839;52.404;9.808;2022-11-18T16:38:34;49.05;;;26.67;;
43226;SDS011;28839;52.404;9.808;2022-11-18T16:45:28;49.37;;;26.80;;
43226;SDS011;28839;52.404;9.808;2022-11-18T16:52:24;33.47;;;19.37;;
43226;SDS011;28839;52.404;9.808;2022-11-18T16:59:19;37.10;;;18.77;;
43226;SDS011;28839;52.404;9.808;2022-11-18T17:06:13;40.28;;;24.05;;
43226;SDS011;28839;52.404;9.808;2022-11-18T17:13:08;36.20;;;20.42;;
43226;SDS011;28839;52.404;9.808;2022-11-18T17:20:03;28.45;;;16.95;;
43226;SDS011;28839;52.404;9.808;2022-11-18T17:26:57;31.85;;;18.95;;
43226;SDS011;28839;52.404;9.808;2022-11-18T17:33:52;25.07;;;14.53;;
43226;SDS011;28839;52.404;9.808;2022-11-18T17:40:51;35.28;;;20.02;;
43226;SDS011;28839;52.404;9.808;2022-11-18T17:47:45;30.30;;;18.58;;
43226;SDS011;28839;52.404;9.808;2022-11-18T17:54:41;27.27;;;14.83;;
43226;SDS011;28839;52.404;9.808;2022-11-18T18:01:34;29.75;;;16.87;;
43226;SDS011;28839;52.404;9.808;2022-11-18T18:08:28;28.73;;;19.10;;
43226;SDS011;28839;52.404;9.808;2022-11-18T18:15:24;26.20;;;16.07;;
43226;SDS011;28839;52.404;9.808;2022-11-18T18:22:17;24.27;;;14.40;;
43226;SDS011;28839;52.404;9.808;2022-11-18T18:29:11;24.97;;;13.60;;
43226;SDS011;28839;52.404;9.808;2022-11-18T18:36:09;22.17;;;14.77;;
43226;SDS011;28839;52.404;9.808;2022-11-18T18:43:04;24.45;;;13.93;;
43226;SDS011;28839;52.404;9.808;2022-11-18T18:49:58;19.83;;;13.48;;
43226;SDS011;28839;52.404;9.808;2022-11-18T18:56:53;16.17;;;10.60;;
43226;SDS011;28839;52.404;9.808;2022-11-18T19:03:47;19.60;;;12.00;;
43226;SDS011;28839;52.404;9.808;2022-11-18T19:10:45;22.15;;;13.38;;
43226;SDS011;28839;52.404;9.808;2022-11-18T19:17:40;23.00;;;13.87;;
43226;SDS011;28839;52.404;9.808;2022-11-18T19:24:34;19.42;;;12.88;;
43226;SDS011;28839;52.404;9.808;2022-11-18T19:31:29;20.48;;;12.93;;
43226;SDS011;28839;52.404;9.808;2022-11-18T19:52:12;22.37;;;13.07;;
43226;SDS011;28839;52.404;9.808;2022-11-18T19:59:09;17.03;;;11.07;;
43226;SDS011;28839;52.404;9.808;2022-11-18T20:06:03;19.75;;;13.93;;
43226;SDS011;28839;52.404;9.808;2022-11-18T20:13:00;16.33;;;10.23;;
43226;SDS011;28839;52.404;9.808;2022-11-18T20:19:55;18.92;;;11.98;;
43226;SDS011;28839;52.404;9.808;2022-11-18T20:26:49;17.08;;;11.68;;
43226;SDS011;28839;52.404;9.808;2022-11-18T20:33:44;20.90;;;12.93;;
43226;SDS011;28839;52.404;9.808;2022-11-18T20:40:41;19.02;;;12.37;;
43226;SDS011;28839;52.404;9.808;2022-11-18T20:47:35;19.73;;;12.10;;
43226;SDS011;28839;52.404;9.808;2022-11-18T20:54:29;14.03;;;9.43;;
43226;SDS011;28839;52.404;9.808;2022-11-18T21:01:27;17.42;;;12.27;;
43226;SDS011;28839;52.404;9.808;2022-11-18T21:08:22;20.42;;;12.35;;
43226;SDS011;28839;52.404;9.808;2022-11-18T21:15:16;19.70;;;11.63;;
43226;SDS011;28839;52.404;9.808;2022-11-18T21:22:12;19.07;;;11.33;;
43226;SDS011;28839;52.404;9.808;2022-11-18T21:29:06;18.55;;;10.68;;
43226;SDS011;28839;52.404;9.808;2022-11-18T21:36:01;20.10;;;10.82;;
43226;SDS011;28839;52.404;9.808;2022-11-18T21:42:57;14.80;;;9.68;;
43226;SDS011;28839;52.404;9.808;2022-11-18T21:49:51;21.98;;;12.30;;
43226;SDS011;28839;52.404;9.808;2022-11-18T21:56:45;17.70;;;10.23;;
43226;SDS011;28839;52.404;9.808;2022-11-18T22:03:41;15.70;;;9.87;;
43226;SDS011;28839;52.404;9.808;2022-11-18T22:10:43;14.15;;;8.95;;
43226;SDS011;28839;52.404;9.808;2022-11-18T22:17:37;13.20;;;9.00;;
43226;SDS011;28839;52.404;9.808;2022-11-18T22:24:32;16.17;;;10.00;;
43226;SDS011;28839;52.404;9.808;2022-11-18T22:31:27;15.55;;;8.85;;
43226;SDS011;28839;52.404;9.808;2022-11-18T22:38:21;15.93;;;10.37;;
43226;SDS011;28839;52.404;9.808;2022-11-18T22:45:16;15.03;;;9.77;;
43226;SDS011;28839;52.404;9.808;2022-11-18T22:52:10;14.30;;;9.70;;
43226;SDS011;28839;52.404;9.808;2022-11-18T22:59:04;18.47;;;9.97;;
43226;SDS011;28839;52.404;9.808;2022-11-18T23:05:59;16.37;;;9.57;;
43226;SDS011;28839;52.404;9.808;2022-11-18T23:12:53;14.20;;;9.07;;
43226;SDS011;28839;52.404;9.808;2022-11-18T23:20:05;14.13;;;9.27;;
43226;SDS011;28839;52.404;9.808;2022-11-18T23:27:01;16.60;;;10.82;;
43226;SDS011;28839;52.404;9.808;2022-11-18T23:33:55;16.80;;;10.35;;
43226;SDS011;28839;52.404;9.808;2022-11-18T23:40:52;15.65;;;11.32;;
43226;SDS011;28839;52.404;9.808;2022-11-18T23:47:48;15.07;;;9.57;;
43226;SDS011;28839;52.404;9.808;2022-11-18T23:54:42;17.27;;;10.88;;
